N7510 VOHS-VOMM
Flight info
| Callsign | N7510 |
|---|---|
| Flight time | 0h 50m |
| Altitude | 41000 |
| Route | HIA V4 MMV |
| Aircraft | C750/M-SBDE3FGHRWXY/S |
Departure
| Time | 2026-04-25 10:10 |
|---|---|
| Airport | Rajiv Gandhi International Airport (VOHS) |
Arrival
| Time | 2026-04-25 11:01 |
|---|---|
| Airport | Chennai International Airport (VOMM) |
| Time | Latitude | Longitude | Altitude | Speed | Heading |
|---|---|---|---|---|---|
| 2026-04-25 09:55 | 17.23360 | 78.42573 | 1974 ft | 0 kts | 15° |
| 2026-04-25 10:04 | 17.23356 | 78.42571 | 1978 ft | 3 kts | 15° |
| 2026-04-25 10:04 | 17.23329 | 78.42563 | 1975 ft | 0 kts | 85° |
| 2026-04-25 10:05 | 17.23328 | 78.42562 | 1975 ft | 0 kts | 86° |
| 2026-04-25 10:06 | 17.23325 | 78.42631 | 1974 ft | 19 kts | 90° |
| 2026-04-25 10:06 | 17.23327 | 78.42742 | 1976 ft | 14 kts | 89° |
| 2026-04-25 10:06 | 17.23330 | 78.42858 | 1977 ft | 9 kts | 88° |
| 2026-04-25 10:06 | 17.23329 | 78.42976 | 1980 ft | 26 kts | 85° |
| 2026-04-25 10:07 | 17.23319 | 78.43152 | 1981 ft | 18 kts | 128° |
| 2026-04-25 10:07 | 17.23211 | 78.43162 | 1982 ft | 7 kts | 180° |
| 2026-04-25 10:07 | 17.23188 | 78.43163 | 1982 ft | 0 kts | 179° |
| 2026-04-25 10:08 | 17.23132 | 78.43167 | 1980 ft | 15 kts | 167° |
| 2026-04-25 10:08 | 17.23090 | 78.43299 | 1981 ft | 29 kts | 89° |
| 2026-04-25 10:08 | 17.23093 | 78.43571 | 1986 ft | 46 kts | 89° |
| 2026-04-25 10:08 | 17.23098 | 78.43933 | 1991 ft | 49 kts | 89° |
| 2026-04-25 10:09 | 17.23102 | 78.44217 | 1995 ft | 14 kts | 89° |
| 2026-04-25 10:09 | 17.23066 | 78.44303 | 1995 ft | 8 kts | 155° |
| 2026-04-25 10:09 | 17.23039 | 78.44305 | 1995 ft | 3 kts | 179° |
| 2026-04-25 10:09 | 17.23007 | 78.44306 | 1995 ft | 9 kts | 179° |
| 2026-04-25 10:10 | 17.22909 | 78.44274 | 1994 ft | 23 kts | 237° |
| 2026-04-25 10:10 | 17.22892 | 78.43846 | 1990 ft | 112 kts | 269° |
| 2026-04-25 10:10 | 17.22873 | 78.42826 | 2242 ft | 148 kts | 269° |
| 2026-04-25 10:10 | 17.22837 | 78.41761 | 2993 ft | 151 kts | 270° |
| 2026-04-25 10:11 | 17.22646 | 78.40617 | 3291 ft | 175 kts | 242° |
| 2026-04-25 10:11 | 17.21818 | 78.39579 | 3532 ft | 201 kts | 213° |
| 2026-04-25 10:11 | 17.20439 | 78.39091 | 3846 ft | 227 kts | 179° |
| 2026-04-25 10:11 | 17.18883 | 78.39596 | 4168 ft | 248 kts | 141° |
| 2026-04-25 10:12 | 17.17566 | 78.40868 | 4655 ft | 266 kts | 133° |
| 2026-04-25 10:12 | 17.16238 | 78.42259 | 5476 ft | 270 kts | 134° |
| 2026-04-25 10:12 | 17.13447 | 78.45010 | 7136 ft | 281 kts | 136° |
| 2026-04-25 10:13 | 17.12027 | 78.46417 | 8134 ft | 282 kts | 135° |
| 2026-04-25 10:13 | 17.10587 | 78.47852 | 9098 ft | 288 kts | 135° |
| 2026-04-25 10:13 | 17.09139 | 78.49290 | 10007 ft | 293 kts | 135° |
| 2026-04-25 10:13 | 17.07648 | 78.50766 | 10833 ft | 297 kts | 134° |
| 2026-04-25 10:14 | 17.06146 | 78.52254 | 11747 ft | 297 kts | 134° |
| 2026-04-25 10:14 | 17.04642 | 78.53743 | 12632 ft | 300 kts | 134° |
| 2026-04-25 10:14 | 17.03104 | 78.55270 | 13202 ft | 314 kts | 134° |
| 2026-04-25 10:14 | 17.01451 | 78.56911 | 13312 ft | 342 kts | 135° |
| 2026-04-25 10:15 | 16.99657 | 78.58687 | 13369 ft | 366 kts | 135° |
| 2026-04-25 10:15 | 16.97796 | 78.60523 | 14031 ft | 368 kts | 135° |
| 2026-04-25 10:15 | 16.95924 | 78.62373 | 14655 ft | 372 kts | 135° |
| 2026-04-25 10:15 | 16.94030 | 78.64250 | 15187 ft | 378 kts | 135° |
| 2026-04-25 10:16 | 16.92104 | 78.66156 | 15768 ft | 383 kts | 136° |
| 2026-04-25 10:16 | 16.90176 | 78.68061 | 16335 ft | 388 kts | 137° |
| 2026-04-25 10:16 | 16.88198 | 78.70015 | 16896 ft | 394 kts | 138° |
| 2026-04-25 10:16 | 16.86196 | 78.71993 | 17530 ft | 398 kts | 138° |
| 2026-04-25 10:17 | 16.84170 | 78.73994 | 18167 ft | 403 kts | 138° |
| 2026-04-25 10:17 | 16.82126 | 78.76014 | 18774 ft | 406 kts | 138° |
| 2026-04-25 10:17 | 16.80060 | 78.78052 | 19385 ft | 410 kts | 139° |
| 2026-04-25 10:17 | 16.77981 | 78.80103 | 20017 ft | 414 kts | 139° |
| 2026-04-25 10:18 | 16.75874 | 78.82182 | 20650 ft | 418 kts | 139° |
| 2026-04-25 10:18 | 16.73750 | 78.84277 | 21280 ft | 421 kts | 139° |
| 2026-04-25 10:18 | 16.71616 | 78.86382 | 21960 ft | 424 kts | 140° |
| 2026-04-25 10:18 | 16.69460 | 78.88506 | 22569 ft | 429 kts | 140° |
| 2026-04-25 10:19 | 16.67285 | 78.90649 | 23193 ft | 433 kts | 140° |
| 2026-04-25 10:19 | 16.65081 | 78.92819 | 23746 ft | 437 kts | 140° |
| 2026-04-25 10:19 | 16.62863 | 78.95004 | 24325 ft | 439 kts | 140° |
| 2026-04-25 10:19 | 16.60667 | 78.97166 | 24894 ft | 441 kts | 140° |
| 2026-04-25 10:20 | 16.58421 | 78.99374 | 25456 ft | 444 kts | 140° |
| 2026-04-25 10:20 | 16.56167 | 79.01591 | 26027 ft | 446 kts | 140° |
| 2026-04-25 10:20 | 16.53906 | 79.03816 | 26595 ft | 449 kts | 140° |
| 2026-04-25 10:20 | 16.51618 | 79.06064 | 27162 ft | 452 kts | 140° |
| 2026-04-25 10:21 | 16.49325 | 79.08316 | 27759 ft | 454 kts | 140° |
| 2026-04-25 10:21 | 16.47020 | 79.10581 | 28298 ft | 457 kts | 141° |
| 2026-04-25 10:21 | 16.44696 | 79.12864 | 28842 ft | 461 kts | 141° |
| 2026-04-25 10:21 | 16.42357 | 79.15159 | 29373 ft | 464 kts | 141° |
| 2026-04-25 10:22 | 16.40000 | 79.17471 | 29919 ft | 466 kts | 140° |
| 2026-04-25 10:22 | 16.38455 | 79.18988 | 30199 ft | 468 kts | 140° |
| 2026-04-25 10:22 | 16.35260 | 79.22121 | 30678 ft | 474 kts | 141° |
| 2026-04-25 10:22 | 16.32847 | 79.24486 | 31166 ft | 474 kts | 141° |
| 2026-04-25 10:23 | 16.30474 | 79.26814 | 31694 ft | 474 kts | 141° |
| 2026-04-25 10:23 | 16.28069 | 79.29169 | 32168 ft | 475 kts | 141° |
| 2026-04-25 10:23 | 16.25661 | 79.31525 | 32663 ft | 476 kts | 141° |
| 2026-04-25 10:23 | 16.23241 | 79.33894 | 33179 ft | 476 kts | 141° |
| 2026-04-25 10:24 | 16.20825 | 79.36259 | 33695 ft | 477 kts | 142° |
| 2026-04-25 10:24 | 16.18404 | 79.38627 | 34158 ft | 478 kts | 142° |
| 2026-04-25 10:24 | 16.15982 | 79.40995 | 34657 ft | 477 kts | 142° |
| 2026-04-25 10:24 | 16.13564 | 79.43359 | 35157 ft | 476 kts | 142° |
| 2026-04-25 10:25 | 16.11149 | 79.45718 | 35650 ft | 476 kts | 142° |
| 2026-04-25 10:25 | 16.08741 | 79.48070 | 36153 ft | 475 kts | 142° |
| 2026-04-25 10:25 | 16.06329 | 79.50425 | 36641 ft | 475 kts | 142° |
| 2026-04-25 10:25 | 16.03917 | 79.52777 | 37163 ft | 474 kts | 142° |
| 2026-04-25 10:26 | 16.01444 | 79.55039 | 37676 ft | 473 kts | 144° |
| 2026-04-25 10:26 | 15.99001 | 79.57257 | 38224 ft | 472 kts | 144° |
| 2026-04-25 10:26 | 15.96529 | 79.59516 | 38733 ft | 471 kts | 144° |
| 2026-04-25 10:26 | 15.94061 | 79.61768 | 39215 ft | 470 kts | 144° |
| 2026-04-25 10:27 | 15.91607 | 79.63996 | 39709 ft | 468 kts | 144° |
| 2026-04-25 10:27 | 15.89153 | 79.66225 | 40187 ft | 467 kts | 143° |
| 2026-04-25 10:27 | 15.87538 | 79.67693 | 40502 ft | 466 kts | 143° |
| 2026-04-25 10:27 | 15.84260 | 79.70674 | 40796 ft | 473 kts | 143° |
| 2026-04-25 10:28 | 15.81780 | 79.72922 | 40789 ft | 483 kts | 143° |
| 2026-04-25 10:28 | 15.76629 | 79.77602 | 40806 ft | 501 kts | 143° |
| 2026-04-25 10:29 | 15.72195 | 79.81589 | 40808 ft | 511 kts | 143° |
| 2026-04-25 10:29 | 15.66786 | 79.86460 | 40806 ft | 516 kts | 142° |
| 2026-04-25 10:30 | 15.60444 | 79.92121 | 40789 ft | 514 kts | 148° |
| 2026-04-25 10:30 | 15.55228 | 79.95027 | 40790 ft | 505 kts | 162° |
| 2026-04-25 10:31 | 15.48505 | 79.96699 | 40814 ft | 499 kts | 174° |
| 2026-04-25 10:31 | 15.41668 | 79.98028 | 40810 ft | 500 kts | 171° |
| 2026-04-25 10:32 | 15.34862 | 79.99470 | 40801 ft | 498 kts | 173° |
| 2026-04-25 10:32 | 15.28040 | 80.00812 | 40798 ft | 499 kts | 172° |
| 2026-04-25 10:33 | 15.21234 | 80.02230 | 40806 ft | 498 kts | 172° |
| 2026-04-25 10:33 | 15.14460 | 80.03583 | 40805 ft | 499 kts | 172° |
| 2026-04-25 10:34 | 15.07640 | 80.04982 | 40801 ft | 498 kts | 172° |
| 2026-04-25 10:34 | 15.00819 | 80.06343 | 40802 ft | 498 kts | 173° |
| 2026-04-25 10:35 | 14.94049 | 80.07644 | 40799 ft | 498 kts | 173° |
| 2026-04-25 10:35 | 14.87222 | 80.08906 | 40800 ft | 498 kts | 173° |
| 2026-04-25 10:36 | 14.80391 | 80.10120 | 40801 ft | 498 kts | 174° |
| 2026-04-25 10:36 | 14.73623 | 80.11754 | 40794 ft | 501 kts | 168° |
| 2026-04-25 10:37 | 14.66874 | 80.13343 | 40792 ft | 499 kts | 174° |
| 2026-04-25 10:37 | 14.60038 | 80.14537 | 40795 ft | 500 kts | 172° |
| 2026-04-25 10:38 | 14.53226 | 80.16047 | 40744 ft | 495 kts | 172° |
| 2026-04-25 10:38 | 14.49895 | 80.16678 | 40095 ft | 480 kts | 174° |
| 2026-04-25 10:38 | 14.46655 | 80.17292 | 39471 ft | 467 kts | 173° |
| 2026-04-25 10:38 | 14.43508 | 80.17946 | 38870 ft | 455 kts | 173° |
| 2026-04-25 10:39 | 14.40439 | 80.18591 | 38244 ft | 448 kts | 173° |
| 2026-04-25 10:39 | 14.37392 | 80.19197 | 37648 ft | 444 kts | 174° |
| 2026-04-25 10:39 | 14.34340 | 80.19792 | 37069 ft | 448 kts | 173° |
| 2026-04-25 10:39 | 14.31263 | 80.20414 | 36473 ft | 452 kts | 173° |
| 2026-04-25 10:40 | 14.28207 | 80.21042 | 35882 ft | 453 kts | 172° |
| 2026-04-25 10:40 | 14.25107 | 80.21668 | 35285 ft | 455 kts | 172° |
| 2026-04-25 10:40 | 14.21991 | 80.22287 | 34682 ft | 456 kts | 172° |
| 2026-04-25 10:40 | 14.18858 | 80.22917 | 34080 ft | 457 kts | 172° |
| 2026-04-25 10:41 | 14.15780 | 80.23541 | 33571 ft | 457 kts | 172° |
| 2026-04-25 10:41 | 14.12641 | 80.24174 | 32959 ft | 459 kts | 172° |
| 2026-04-25 10:41 | 14.09496 | 80.24804 | 32350 ft | 460 kts | 172° |
| 2026-04-25 10:41 | 14.06353 | 80.25435 | 31736 ft | 461 kts | 171° |
| 2026-04-25 10:42 | 14.03191 | 80.26072 | 31127 ft | 462 kts | 171° |
| 2026-04-25 10:42 | 14.00026 | 80.26709 | 30506 ft | 464 kts | 171° |
| 2026-04-25 10:42 | 13.96864 | 80.27344 | 29899 ft | 460 kts | 171° |
| 2026-04-25 10:42 | 13.93738 | 80.27973 | 29262 ft | 455 kts | 171° |
| 2026-04-25 10:43 | 13.90631 | 80.28596 | 28666 ft | 453 kts | 171° |
| 2026-04-25 10:43 | 13.87545 | 80.29215 | 28081 ft | 450 kts | 171° |
| 2026-04-25 10:43 | 13.84479 | 80.29831 | 27499 ft | 448 kts | 171° |
| 2026-04-25 10:43 | 13.81468 | 80.30435 | 26925 ft | 439 kts | 170° |
| 2026-04-25 10:44 | 13.78544 | 80.31024 | 26378 ft | 417 kts | 170° |
| 2026-04-25 10:44 | 13.75768 | 80.31581 | 25883 ft | 397 kts | 170° |
| 2026-04-25 10:44 | 13.73109 | 80.32114 | 25386 ft | 381 kts | 171° |
| 2026-04-25 10:44 | 13.70544 | 80.32627 | 24911 ft | 368 kts | 171° |
| 2026-04-25 10:45 | 13.68100 | 80.33117 | 24449 ft | 359 kts | 171° |
| 2026-04-25 10:45 | 13.65641 | 80.33599 | 23998 ft | 360 kts | 171° |
| 2026-04-25 10:45 | 13.63138 | 80.33588 | 23486 ft | 361 kts | 190° |
| 2026-04-25 10:45 | 13.60714 | 80.32994 | 23025 ft | 357 kts | 194° |
| 2026-04-25 10:46 | 13.58322 | 80.32340 | 22550 ft | 352 kts | 194° |
| 2026-04-25 10:46 | 13.55952 | 80.31705 | 22085 ft | 350 kts | 194° |
| 2026-04-25 10:46 | 13.53601 | 80.31099 | 21615 ft | 346 kts | 193° |
| 2026-04-25 10:46 | 13.51276 | 80.30497 | 21162 ft | 343 kts | 193° |
| 2026-04-25 10:47 | 13.48966 | 80.29888 | 20713 ft | 343 kts | 193° |
| 2026-04-25 10:47 | 13.46665 | 80.29281 | 20266 ft | 340 kts | 193° |
| 2026-04-25 10:47 | 13.44398 | 80.28689 | 19821 ft | 340 kts | 193° |
| 2026-04-25 10:47 | 13.42118 | 80.28093 | 19334 ft | 336 kts | 193° |
| 2026-04-25 10:48 | 13.39869 | 80.27505 | 18880 ft | 332 kts | 193° |
| 2026-04-25 10:48 | 13.37641 | 80.26920 | 18432 ft | 327 kts | 193° |
| 2026-04-25 10:48 | 13.35444 | 80.26345 | 17998 ft | 325 kts | 193° |
| 2026-04-25 10:48 | 13.33259 | 80.25775 | 17553 ft | 326 kts | 193° |
| 2026-04-25 10:49 | 13.31051 | 80.25198 | 17123 ft | 328 kts | 192° |
| 2026-04-25 10:49 | 13.28832 | 80.24617 | 16690 ft | 329 kts | 192° |
| 2026-04-25 10:49 | 13.26634 | 80.24036 | 16264 ft | 330 kts | 193° |
| 2026-04-25 10:49 | 13.24552 | 80.23016 | 15765 ft | 337 kts | 215° |
| 2026-04-25 10:50 | 13.23003 | 80.21233 | 15345 ft | 338 kts | 238° |
| 2026-04-25 10:50 | 13.22099 | 80.19009 | 14956 ft | 337 kts | 251° |
| 2026-04-25 10:50 | 13.21354 | 80.16729 | 14526 ft | 336 kts | 252° |
| 2026-04-25 10:50 | 13.20617 | 80.14451 | 14076 ft | 335 kts | 252° |
| 2026-04-25 10:51 | 13.19850 | 80.12189 | 13640 ft | 335 kts | 252° |
| 2026-04-25 10:51 | 13.19078 | 80.09936 | 13150 ft | 332 kts | 252° |
| 2026-04-25 10:51 | 13.18604 | 80.07640 | 12638 ft | 327 kts | 271° |
| 2026-04-25 10:51 | 13.19005 | 80.05400 | 12237 ft | 317 kts | 294° |
| 2026-04-25 10:52 | 13.19988 | 80.03406 | 11870 ft | 312 kts | 302° |
| 2026-04-25 10:52 | 13.21027 | 80.01477 | 11470 ft | 312 kts | 302° |
| 2026-04-25 10:52 | 13.22052 | 79.99540 | 11055 ft | 303 kts | 302° |
| 2026-04-25 10:52 | 13.23029 | 79.97663 | 10654 ft | 293 kts | 302° |
| 2026-04-25 10:53 | 13.23980 | 79.95852 | 10267 ft | 283 kts | 302° |
| 2026-04-25 10:53 | 13.24908 | 79.94093 | 9892 ft | 276 kts | 302° |
| 2026-04-25 10:53 | 13.25811 | 79.92378 | 9516 ft | 269 kts | 302° |
| 2026-04-25 10:53 | 13.26373 | 79.90531 | 8980 ft | 292 kts | 275° |
| 2026-04-25 10:54 | 13.25855 | 79.88490 | 8668 ft | 299 kts | 239° |
| 2026-04-25 10:54 | 13.24950 | 79.87427 | 8558 ft | 299 kts | 220° |
| 2026-04-25 10:54 | 13.22540 | 79.85978 | 8756 ft | 307 kts | 201° |
| 2026-04-25 10:54 | 13.20468 | 79.85699 | 8707 ft | 299 kts | 171° |
| 2026-04-25 10:55 | 13.18378 | 79.85899 | 8744 ft | 296 kts | 172° |
| 2026-04-25 10:55 | 13.16462 | 79.86526 | 8610 ft | 275 kts | 153° |
| 2026-04-25 10:55 | 13.14865 | 79.87319 | 7676 ft | 240 kts | 150° |
| 2026-04-25 10:55 | 13.13347 | 79.88324 | 6166 ft | 282 kts | 138° |
| 2026-04-25 10:56 | 13.11942 | 79.89741 | 5618 ft | 276 kts | 130° |
| 2026-04-25 10:56 | 13.10756 | 79.91262 | 5014 ft | 271 kts | 124° |
| 2026-04-25 10:56 | 13.09831 | 79.92929 | 4364 ft | 269 kts | 115° |
| 2026-04-25 10:56 | 13.09154 | 79.94639 | 3241 ft | 259 kts | 112° |
| 2026-04-25 10:57 | 13.08473 | 79.96431 | 2338 ft | 270 kts | 113° |
| 2026-04-25 10:57 | 13.07787 | 79.98152 | 2036 ft | 253 kts | 113° |
| 2026-04-25 10:57 | 13.07149 | 79.99736 | 1803 ft | 234 kts | 112° |
| 2026-04-25 10:57 | 13.06529 | 80.01290 | 1224 ft | 236 kts | 113° |
| 2026-04-25 10:58 | 13.05904 | 80.02863 | 844 ft | 240 kts | 113° |
| 2026-04-25 10:58 | 13.05257 | 80.04493 | 1290 ft | 243 kts | 113° |
| 2026-04-25 10:58 | 13.04617 | 80.06100 | 1546 ft | 246 kts | 114° |
| 2026-04-25 10:58 | 13.03970 | 80.07718 | 1544 ft | 240 kts | 113° |
| 2026-04-25 10:59 | 13.03338 | 80.09308 | 1342 ft | 243 kts | 114° |
| 2026-04-25 10:59 | 13.02739 | 80.10816 | 931 ft | 210 kts | 113° |
| 2026-04-25 10:59 | 13.02229 | 80.12103 | 512 ft | 180 kts | 116° |
| 2026-04-25 10:59 | 13.01796 | 80.13152 | 400 ft | 144 kts | 115° |
| 2026-04-25 11:00 | 13.01364 | 80.13982 | 349 ft | 120 kts | 119° |
| 2026-04-25 11:00 | 13.01006 | 80.14717 | 211 ft | 113 kts | 114° |
| 2026-04-25 11:00 | 13.00761 | 80.15459 | 135 ft | 114 kts | 119° |
| 2026-04-25 11:00 | 13.00392 | 80.16201 | 74 ft | 117 kts | 121° |
| 2026-04-25 11:01 | 13.00058 | 80.16835 | 47 ft | 74 kts | 115° |
| 2026-04-25 11:01 | 12.99912 | 80.17134 | 46 ft | 24 kts | 106° |